Flight Track Log - Related Links

Times and Time Zones

All times are in EDT time to prevent confusion due to time zone crossing. See the THU850 flight status page for this flight to view local times or setup timezone preferences in your user account.

Time Position Orientation Groundspeed Altitude Reporting Facility
EDT Latitude Longitude Course Direction KTS MPH feet Rate Location/Type
Sat 09:31:10 AM 48.6667 -86.6000 287° West 170 196 10,500  Level Winnipeg Center
Sat 09:32:00 AM 48.6742 -86.9691 259° West  Level FlightAware Approximate
Sat 09:32:10 AM 48.6667 -86.6667 270° West 170 196 12,000  Level Winnipeg Center
Sat 09:33:00 AM 48.6621 -87.0598 259° West  Level FlightAware Approximate
Sat 09:33:10 AM 48.6667 -86.7500 270° West 180 207 13,000  Level Winnipeg Center
Sat 09:34:00 AM 48.6500 -87.1505 263° West  Level FlightAware Approximate
Sat 09:34:10 AM 48.6833 -86.8167 291° West 190 219 13,900  Level Winnipeg Center
Sat 09:35:00 AM 48.6424 -87.2423 263° West  Level FlightAware Approximate
Sat 09:35:10 AM 48.6667 -86.9167 256° West 210 242 13,900  Level Winnipeg Center
Sat 09:36:10 AM 48.6667 -87.0000 270° West 230 265 13,900 50 Level Winnipeg Center
Sat 09:37:10 AM 48.6500 -87.1000 256° West 250 288 14,000 50 Climbing Winnipeg Center
Sat 09:38:10 AM 48.6333 -87.2167 258° West 250 288 14,000 -50 Level Winnipeg Center
Sat 09:39:10 AM 48.6167 -87.3167 256° West 260 299 13,900 -50 Descending Winnipeg Center
Sat 09:40:10 AM 48.6000 -87.4167 256° West 260 299 13,900 50 Level Winnipeg Center
Sat 09:41:10 AM 48.5833 -87.5167 256° West 260 299 14,000 50 Climbing Winnipeg Center
Sat 09:42:10 AM 48.5667 -87.6333 258° West 260 299 14,000 -50 Level Winnipeg Center
Sat 09:43:10 AM 48.5667 -87.7333 270° West 260 299 13,900  Descending Winnipeg Center
Sat 09:44:10 AM 48.5500 -87.8667 259° West 260 299 14,000  Climbing Winnipeg Center
Sat 09:45:10 AM 48.5333 -87.9667 256° West 260 299 13,900  Descending Winnipeg Center
Sat 09:46:10 AM 48.5167 -88.0667 256° West 260 299 14,000 50 Climbing Winnipeg Center
Sat 09:47:10 AM 48.5333 -88.1667 284° West 260 299 14,000 -50 Level Winnipeg Center
Sat 09:48:10 AM 48.5000 -88.2667 243° Southwest 260 299 13,900  Descending Winnipeg Center
Sat 09:49:10 AM 48.5000 -88.4000 270° West 260 299 14,000 -400 Climbing Winnipeg Center
Sat 09:50:10 AM 48.4833 -88.5000 256° West 270 311 13,100 -1,550 Descending Winnipeg Center
Sat 09:51:10 AM 48.4667 -88.6167 258° West 280 322 10,900 -1,950 Descending Winnipeg Center
Sat 09:52:10 AM 48.4333 -88.7167 243° Southwest 260 299 9,200 -1,950 Descending Winnipeg Center
Sat 09:53:10 AM 48.3833 -88.8000 228° Southwest 240 276 7,000 -2,000 Descending Winnipeg Center
Sat 09:54:10 AM 48.4000 -88.9000 284° West 230 265 5,200 -1,750 Descending Winnipeg Center
Sat 09:55:10 AM 48.4167 -89.0000 284° West 240 276 3,500 -1,000 Descending Winnipeg Center
Sat 09:56:10 AM 48.4167 -89.0833 270° West 190 219 3,200 -300 Descending Winnipeg Center
Sat 09:57:10 AM 48.3833 -89.1333 225° Southwest 180 207 2,900 -600 Descending Winnipeg Center
Sat 09:58:10 AM 48.3667 -89.1833 243° Southwest 140 161 2,000 -900 Descending Winnipeg Center
Sat 09:59:10 AM 48.3500 -89.2333 243° Southwest 130 150 1,100 -700 Descending Winnipeg Center
Sat 10:00:10 AM 48.3667 -89.2833 297° West 120 138 600 -500 Descending Winnipeg Center

Login

Don't have an account? Register now (free) for customized features, flight alerts, and more!